sensor_id;sensor_type;location;lat;lon;timestamp;pressure;altitude;pressure_sealevel;temperature;humidity
53526;BME280;40551;50.478;19.378;2022-09-12T00:02:27;97736.62;;;12.05;84.48
53526;BME280;40551;50.478;19.378;2022-09-12T00:04:57;97731.61;;;12.10;84.36
53526;BME280;40551;50.478;19.378;2022-09-12T00:07:29;97734.42;;;12.10;84.50
53526;BME280;40551;50.478;19.378;2022-09-12T00:09:59;97733.42;;;12.15;84.48
53526;BME280;40551;50.478;19.378;2022-09-12T00:12:30;97737.91;;;12.13;84.67
53526;BME280;40551;50.478;19.378;2022-09-12T00:15:00;97732.54;;;12.15;84.36
53526;BME280;40551;50.478;19.378;2022-09-12T00:17:34;97735.29;;;12.11;84.45
53526;BME280;40551;50.478;19.378;2022-09-12T00:20:08;97733.33;;;12.14;84.65
53526;BME280;40551;50.478;19.378;2022-09-12T00:22:40;97728.48;;;12.17;84.41
53526;BME280;40551;50.478;19.378;2022-09-12T00:25:11;97727.58;;;12.19;84.32
53526;BME280;40551;50.478;19.378;2022-09-12T00:27:43;97728.16;;;12.20;84.28
53526;BME280;40551;50.478;19.378;2022-09-12T00:30:13;97724.74;;;12.24;84.36
53526;BME280;40551;50.478;19.378;2022-09-12T00:32:44;97726.27;;;12.22;84.31
53526;BME280;40551;50.478;19.378;2022-09-12T00:35:16;97726.26;;;12.26;84.49
53526;BME280;40551;50.478;19.378;2022-09-12T00:37:48;97730.66;;;12.29;84.46
53526;BME280;40551;50.478;19.378;2022-09-12T00:40:18;97728.45;;;12.30;84.37
53526;BME280;40551;50.478;19.378;2022-09-12T00:42:49;97728.77;;;12.29;84.27
53526;BME280;40551;50.478;19.378;2022-09-12T00:45:26;97725.46;;;12.31;84.14
53526;BME280;40551;50.478;19.378;2022-09-12T00:48:01;97725.94;;;12.33;84.27
53526;BME280;40551;50.478;19.378;2022-09-12T00:50:33;97726.40;;;12.33;84.08
53526;BME280;40551;50.478;19.378;2022-09-12T00:53:04;97724.77;;;12.32;84.08
53526;BME280;40551;50.478;19.378;2022-09-12T00:55:40;97725.81;;;12.27;84.18
53526;BME280;40551;50.478;19.378;2022-09-12T00:58:17;97727.35;;;12.27;84.08
53526;BME280;40551;50.478;19.378;2022-09-12T01:00:50;97724.98;;;12.28;84.08
53526;BME280;40551;50.478;19.378;2022-09-12T01:03:23;97727.92;;;12.29;84.00
53526;BME280;40551;50.478;19.378;2022-09-12T01:06:00;97729.08;;;12.26;83.81
53526;BME280;40551;50.478;19.378;2022-09-12T01:08:35;97730.86;;;12.19;83.54
53526;BME280;40551;50.478;19.378;2022-09-12T01:11:09;97729.45;;;12.18;83.64
53526;BME280;40551;50.478;19.378;2022-09-12T01:13:42;97731.77;;;12.19;83.77
53526;BME280;40551;50.478;19.378;2022-09-12T01:16:14;97730.84;;;12.22;83.80
53526;BME280;40551;50.478;19.378;2022-09-12T01:18:54;97740.33;;;12.23;83.70
53526;BME280;40551;50.478;19.378;2022-09-12T01:21:36;97740.77;;;12.18;83.46
53526;BME280;40551;50.478;19.378;2022-09-12T01:24:36;97743.67;;;12.19;83.46
53526;BME280;40551;50.478;19.378;2022-09-12T01:27:19;97743.86;;;12.18;83.49
53526;BME280;40551;50.478;19.378;2022-09-12T01:30:26;97741.38;;;12.17;83.27
53526;BME280;40551;50.478;19.378;2022-09-12T01:33:24;97739.44;;;12.15;83.74
53526;BME280;40551;50.478;19.378;2022-09-12T01:36:10;97739.77;;;12.14;83.56
53526;BME280;40551;50.478;19.378;2022-09-12T01:38:51;97741.61;;;12.18;83.78
53526;BME280;40551;50.478;19.378;2022-09-12T01:41:32;97734.06;;;12.23;83.85
53526;BME280;40551;50.478;19.378;2022-09-12T01:44:16;97734.60;;;12.28;83.80
53526;BME280;40551;50.478;19.378;2022-09-12T01:46:56;97733.55;;;12.28;83.38
53526;BME280;40551;50.478;19.378;2022-09-12T01:49:37;97733.92;;;12.28;83.44
53526;BME280;40551;50.478;19.378;2022-09-12T01:52:21;97735.38;;;12.31;83.39
53526;BME280;40551;50.478;19.378;2022-09-12T01:54:58;97731.13;;;12.33;83.46
53526;BME280;40551;50.478;19.378;2022-09-12T01:57:42;97736.85;;;12.35;83.18
53526;BME280;40551;50.478;19.378;2022-09-12T02:00:15;97738.27;;;12.33;82.93
53526;BME280;40551;50.478;19.378;2022-09-12T02:02:50;97739.61;;;12.30;82.99
53526;BME280;40551;50.478;19.378;2022-09-12T02:05:26;97735.46;;;12.28;82.93
53526;BME280;40551;50.478;19.378;2022-09-12T02:08:04;97733.52;;;12.28;83.06
53526;BME280;40551;50.478;19.378;2022-09-12T02:10:42;97735.58;;;12.29;82.93
53526;BME280;40551;50.478;19.378;2022-09-12T02:13:20;97743.82;;;12.24;82.66
53526;BME280;40551;50.478;19.378;2022-09-12T02:15:57;97741.15;;;12.21;82.91
53526;BME280;40551;50.478;19.378;2022-09-12T02:18:32;97745.43;;;12.22;82.93
53526;BME280;40551;50.478;19.378;2022-09-12T02:21:06;97748.68;;;12.21;82.82
53526;BME280;40551;50.478;19.378;2022-09-12T02:23:40;97746.96;;;12.22;82.97
53526;BME280;40551;50.478;19.378;2022-09-12T02:26:18;97749.20;;;12.21;82.71
53526;BME280;40551;50.478;19.378;2022-09-12T02:28:51;97750.70;;;12.17;82.75
53526;BME280;40551;50.478;19.378;2022-09-12T02:31:22;97749.29;;;12.16;82.81
53526;BME280;40551;50.478;19.378;2022-09-12T02:34:08;97747.61;;;12.12;82.90
53526;BME280;40551;50.478;19.378;2022-09-12T02:36:47;97746.51;;;12.12;82.74
53526;BME280;40551;50.478;19.378;2022-09-12T02:39:20;97745.85;;;12.12;82.79
53526;BME280;40551;50.478;19.378;2022-09-12T02:41:53;97744.63;;;12.10;82.78
53526;BME280;40551;50.478;19.378;2022-09-12T02:44:27;97742.20;;;12.09;82.68
53526;BME280;40551;50.478;19.378;2022-09-12T02:47:02;97737.96;;;12.06;82.59
53526;BME280;40551;50.478;19.378;2022-09-12T02:49:35;97738.48;;;12.06;82.67
53526;BME280;40551;50.478;19.378;2022-09-12T02:52:07;97743.02;;;12.07;82.85
53526;BME280;40551;50.478;19.378;2022-09-12T02:54:38;97743.05;;;12.05;82.74
53526;BME280;40551;50.478;19.378;2022-09-12T02:57:17;97744.11;;;12.05;82.80
53526;BME280;40551;50.478;19.378;2022-09-12T02:59:54;97742.63;;;12.02;82.61
53526;BME280;40551;50.478;19.378;2022-09-12T03:02:33;97744.42;;;11.98;82.37
53526;BME280;40551;50.478;19.378;2022-09-12T03:05:21;97747.44;;;11.96;82.42
53526;BME280;40551;50.478;19.378;2022-09-12T03:08:09;97750.86;;;11.92;82.33
53526;BME280;40551;50.478;19.378;2022-09-12T03:10:54;97750.65;;;11.87;82.24
53526;BME280;40551;50.478;19.378;2022-09-12T03:13:35;97750.32;;;11.83;82.36
53526;BME280;40551;50.478;19.378;2022-09-12T03:16:17;97753.79;;;11.78;82.22
53526;BME280;40551;50.478;19.378;2022-09-12T03:18:59;97757.80;;;11.72;82.18
53526;BME280;40551;50.478;19.378;2022-09-12T03:21:38;97760.80;;;11.68;82.29
53526;BME280;40551;50.478;19.378;2022-09-12T03:24:15;97759.92;;;11.62;82.12
53526;BME280;40551;50.478;19.378;2022-09-12T03:26:51;97764.38;;;11.59;82.48
53526;BME280;40551;50.478;19.378;2022-09-12T03:29:26;97762.88;;;11.57;82.38
53526;BME280;40551;50.478;19.378;2022-09-12T03:31:59;97763.19;;;11.55;82.22
53526;BME280;40551;50.478;19.378;2022-09-12T03:34:31;97762.63;;;11.50;82.19
53526;BME280;40551;50.478;19.378;2022-09-12T03:37:02;97762.95;;;11.47;82.11
53526;BME280;40551;50.478;19.378;2022-09-12T03:39:34;97765.61;;;11.44;82.33
53526;BME280;40551;50.478;19.378;2022-09-12T03:42:06;97763.74;;;11.38;82.25
53526;BME280;40551;50.478;19.378;2022-09-12T03:44:37;97767.14;;;11.33;82.18
53526;BME280;40551;50.478;19.378;2022-09-12T03:47:08;97765.11;;;11.31;82.34
53526;BME280;40551;50.478;19.378;2022-09-12T03:49:40;97766.88;;;11.29;82.05
53526;BME280;40551;50.478;19.378;2022-09-12T03:52:10;97764.27;;;11.25;82.08
53526;BME280;40551;50.478;19.378;2022-09-12T03:54:42;97766.68;;;11.18;82.39
53526;BME280;40551;50.478;19.378;2022-09-12T03:57:13;97769.90;;;11.15;82.34
53526;BME280;40551;50.478;19.378;2022-09-12T03:59:43;97773.39;;;11.11;82.14
53526;BME280;40551;50.478;19.378;2022-09-12T04:02:15;97773.35;;;11.04;82.27
53526;BME280;40551;50.478;19.378;2022-09-12T04:04:46;97773.23;;;11.01;82.22
53526;BME280;40551;50.478;19.378;2022-09-12T04:07:16;97781.46;;;11.00;82.25
53526;BME280;40551;50.478;19.378;2022-09-12T04:09:48;97779.24;;;10.96;82.44
53526;BME280;40551;50.478;19.378;2022-09-12T04:12:20;97780.15;;;10.96;82.48
53526;BME280;40551;50.478;19.378;2022-09-12T04:14:51;97781.69;;;10.94;82.36
53526;BME280;40551;50.478;19.378;2022-09-12T04:17:22;97779.74;;;10.93;82.42
53526;BME280;40551;50.478;19.378;2022-09-12T04:19:52;97779.13;;;10.92;82.28
53526;BME280;40551;50.478;19.378;2022-09-12T04:22:24;97781.15;;;10.86;82.55
53526;BME280;40551;50.478;19.378;2022-09-12T04:24:55;97786.48;;;10.88;82.63
53526;BME280;40551;50.478;19.378;2022-09-12T04:27:25;97787.23;;;10.90;82.71
53526;BME280;40551;50.478;19.378;2022-09-12T04:29:57;97789.45;;;10.86;82.84
53526;BME280;40551;50.478;19.378;2022-09-12T04:32:30;97796.72;;;10.87;82.89
53526;BME280;40551;50.478;19.378;2022-09-12T04:35:02;97795.42;;;10.87;82.81
53526;BME280;40551;50.478;19.378;2022-09-12T04:37:34;97795.86;;;10.88;82.83
53526;BME280;40551;50.478;19.378;2022-09-12T04:40:07;97795.10;;;10.92;82.96
53526;BME280;40551;50.478;19.378;2022-09-12T04:42:39;97792.66;;;10.96;82.97
53526;BME280;40551;50.478;19.378;2022-09-12T04:45:11;97791.25;;;10.98;83.01
53526;BME280;40551;50.478;19.378;2022-09-12T04:47:42;97785.67;;;10.96;82.77
53526;BME280;40551;50.478;19.378;2022-09-12T04:50:16;97791.80;;;10.95;82.66
53526;BME280;40551;50.478;19.378;2022-09-12T04:52:51;97793.72;;;10.93;82.55
53526;BME280;40551;50.478;19.378;2022-09-12T04:55:23;97798.17;;;10.94;82.71
53526;BME280;40551;50.478;19.378;2022-09-12T04:57:54;97802.02;;;10.95;82.74
53526;BME280;40551;50.478;19.378;2022-09-12T05:00:26;97804.92;;;10.96;82.66
53526;BME280;40551;50.478;19.378;2022-09-12T05:02:58;97800.95;;;10.98;82.99
53526;BME280;40551;50.478;19.378;2022-09-12T05:05:28;97806.86;;;10.98;82.89
53526;BME280;40551;50.478;19.378;2022-09-12T05:07:59;97807.09;;;10.95;82.90
53526;BME280;40551;50.478;19.378;2022-09-12T05:10:29;97808.67;;;10.99;83.04
53526;BME280;40551;50.478;19.378;2022-09-12T05:13:02;97813.09;;;10.98;83.08
53526;BME280;40551;50.478;19.378;2022-09-12T05:15:33;97810.16;;;11.02;83.05
53526;BME280;40551;50.478;19.378;2022-09-12T05:18:05;97818.20;;;11.06;83.25
53526;BME280;40551;50.478;19.378;2022-09-12T05:20:35;97818.26;;;11.10;83.14
53526;BME280;40551;50.478;19.378;2022-09-12T05:23:06;97817.16;;;11.08;83.31
53526;BME280;40551;50.478;19.378;2022-09-12T05:25:38;97818.14;;;11.11;83.17
53526;BME280;40551;50.478;19.378;2022-09-12T05:28:08;97821.31;;;11.14;83.09
53526;BME280;40551;50.478;19.378;2022-09-12T05:30:39;97823.46;;;11.12;82.90
53526;BME280;40551;50.478;19.378;2022-09-12T05:33:09;97824.99;;;11.12;82.67
53526;BME280;40551;50.478;19.378;2022-09-12T05:35:41;97822.89;;;11.08;82.90
53526;BME280;40551;50.478;19.378;2022-09-12T05:38:21;97824.76;;;11.11;82.82
53526;BME280;40551;50.478;19.378;2022-09-12T05:40:53;97829.41;;;11.09;82.78
53526;BME280;40551;50.478;19.378;2022-09-12T05:43:23;97836.10;;;11.06;82.53
53526;BME280;40551;50.478;19.378;2022-09-12T05:46:00;97842.88;;;11.01;82.81
53526;BME280;40551;50.478;19.378;2022-09-12T05:48:32;97844.84;;;11.02;82.74
53526;BME280;40551;50.478;19.378;2022-09-12T05:51:06;97842.54;;;11.00;82.73
53526;BME280;40551;50.478;19.378;2022-09-12T05:53:39;97844.00;;;11.00;83.00
53526;BME280;40551;50.478;19.378;2022-09-12T05:56:12;97840.66;;;10.98;82.94
53526;BME280;40551;50.478;19.378;2022-09-12T05:58:47;97844.48;;;11.02;82.90
53526;BME280;40551;50.478;19.378;2022-09-12T06:01:19;97844.38;;;11.01;82.77
53526;BME280;40551;50.478;19.378;2022-09-12T06:03:52;97839.20;;;11.01;82.70
53526;BME280;40551;50.478;19.378;2022-09-12T06:06:24;97838.86;;;11.05;83.07
53526;BME280;40551;50.478;19.378;2022-09-12T06:08:58;97837.58;;;11.11;83.17
53526;BME280;40551;50.478;19.378;2022-09-12T06:11:32;97837.66;;;11.12;83.02
53526;BME280;40551;50.478;19.378;2022-09-12T06:14:04;97837.60;;;11.13;82.89
53526;BME280;40551;50.478;19.378;2022-09-12T06:16:36;97833.92;;;11.15;82.93
53526;BME280;40551;50.478;19.378;2022-09-12T06:19:13;97837.08;;;11.20;83.07
53526;BME280;40551;50.478;19.378;2022-09-12T06:21:46;97839.65;;;11.30;83.13
53526;BME280;40551;50.478;19.378;2022-09-12T06:24:19;97841.80;;;11.41;83.19
53526;BME280;40551;50.478;19.378;2022-09-12T06:26:51;97838.39;;;11.46;82.73
53526;BME280;40551;50.478;19.378;2022-09-12T06:29:24;97839.42;;;11.48;82.57
53526;BME280;40551;50.478;19.378;2022-09-12T06:31:55;97843.30;;;11.55;82.87
53526;BME280;40551;50.478;19.378;2022-09-12T06:34:27;97843.70;;;11.62;82.54
53526;BME280;40551;50.478;19.378;2022-09-12T06:37:00;97846.65;;;11.66;82.16
53526;BME280;40551;50.478;19.378;2022-09-12T06:39:33;97847.10;;;11.84;82.84
53526;BME280;40551;50.478;19.378;2022-09-12T06:42:06;97849.64;;;12.14;82.72
53526;BME280;40551;50.478;19.378;2022-09-12T06:44:38;97849.20;;;12.24;81.66
53526;BME280;40551;50.478;19.378;2022-09-12T06:47:10;97848.27;;;12.29;81.32
53526;BME280;40551;50.478;19.378;2022-09-12T06:49:42;97848.52;;;12.35;81.28
53526;BME280;40551;50.478;19.378;2022-09-12T06:52:13;97850.47;;;12.42;80.88
53526;BME280;40551;50.478;19.378;2022-09-12T06:54:43;97852.77;;;12.51;80.82
53526;BME280;40551;50.478;19.378;2022-09-12T06:57:15;97851.36;;;12.62;81.21
53526;BME280;40551;50.478;19.378;2022-09-12T06:59:45;97848.55;;;12.89;81.15
53526;BME280;40551;50.478;19.378;2022-09-12T07:02:17;97845.02;;;13.04;80.59
53526;BME280;40551;50.478;19.378;2022-09-12T07:04:47;97848.49;;;13.32;80.73
53526;BME280;40551;50.478;19.378;2022-09-12T07:07:21;97850.55;;;13.55;80.68
53526;BME280;40551;50.478;19.378;2022-09-12T07:09:53;97853.89;;;13.78;79.93
53526;BME280;40551;50.478;19.378;2022-09-12T07:12:27;97857.67;;;13.88;78.98
53526;BME280;40551;50.478;19.378;2022-09-12T07:14:59;97858.46;;;14.03;77.65
53526;BME280;40551;50.478;19.378;2022-09-12T07:17:29;97857.46;;;14.08;77.12
53526;BME280;40551;50.478;19.378;2022-09-12T07:20:00;97856.73;;;14.03;75.83
53526;BME280;40551;50.478;19.378;2022-09-12T07:22:32;97855.31;;;14.01;75.33
53526;BME280;40551;50.478;19.378;2022-09-12T07:25:02;97854.80;;;14.05;76.03
53526;BME280;40551;50.478;19.378;2022-09-12T07:27:34;97861.29;;;14.03;74.77
53526;BME280;40551;50.478;19.378;2022-09-12T07:30:08;97857.73;;;14.05;74.69
53526;BME280;40551;50.478;19.378;2022-09-12T07:32:39;97858.67;;;14.06;74.68
53526;BME280;40551;50.478;19.378;2022-09-12T07:35:09;97863.41;;;14.16;74.90
53526;BME280;40551;50.478;19.378;2022-09-12T07:37:41;97864.19;;;14.13;74.34
53526;BME280;40551;50.478;19.378;2022-09-12T07:40:12;97866.55;;;14.23;74.44
53526;BME280;40551;50.478;19.378;2022-09-12T07:42:44;97869.89;;;14.31;73.32
53526;BME280;40551;50.478;19.378;2022-09-12T07:45:17;97868.80;;;14.36;73.61
53526;BME280;40551;50.478;19.378;2022-09-12T07:47:46;97873.55;;;14.42;73.44
53526;BME280;40551;50.478;19.378;2022-09-12T07:50:18;97871.38;;;14.45;73.45
53526;BME280;40551;50.478;19.378;2022-09-12T07:52:48;97872.19;;;14.42;71.41
53526;BME280;40551;50.478;19.378;2022-09-12T07:55:20;97867.64;;;14.37;72.04
53526;BME280;40551;50.478;19.378;2022-09-12T07:57:51;97871.09;;;14.39;71.64
53526;BME280;40551;50.478;19.378;2022-09-12T08:00:21;97873.51;;;14.38;71.50
53526;BME280;40551;50.478;19.378;2022-09-12T08:02:54;97870.13;;;14.25;70.45
53526;BME280;40551;50.478;19.378;2022-09-12T08:05:28;97871.93;;;14.26;70.83
53526;BME280;40551;50.478;19.378;2022-09-12T08:08:00;97871.34;;;14.26;70.55
53526;BME280;40551;50.478;19.378;2022-09-12T08:10:30;97869.98;;;14.22;70.16
53526;BME280;40551;50.478;19.378;2022-09-12T08:13:01;97874.84;;;14.17;70.75
53526;BME280;40551;50.478;19.378;2022-09-12T08:15:34;97876.78;;;14.30;71.26
53526;BME280;40551;50.478;19.378;2022-09-12T08:18:06;97872.25;;;14.45;70.77
53526;BME280;40551;50.478;19.378;2022-09-12T08:20:37;97875.35;;;14.56;69.30
53526;BME280;40551;50.478;19.378;2022-09-12T08:23:07;97873.11;;;14.61;68.20
53526;BME280;40551;50.478;19.378;2022-09-12T08:25:39;97875.00;;;14.57;68.67
53526;BME280;40551;50.478;19.378;2022-09-12T08:28:09;97875.98;;;14.68;69.51
53526;BME280;40551;50.478;19.378;2022-09-12T08:30:41;97876.25;;;14.76;69.26
53526;BME280;40551;50.478;19.378;2022-09-12T08:33:12;97874.81;;;14.91;69.61
53526;BME280;40551;50.478;19.378;2022-09-12T08:35:44;97881.95;;;15.00;68.65
53526;BME280;40551;50.478;19.378;2022-09-12T08:38:14;97875.80;;;14.95;67.07
53526;BME280;40551;50.478;19.378;2022-09-12T08:40:52;97877.48;;;14.84;67.56
53526;BME280;40551;50.478;19.378;2022-09-12T08:43:38;97874.71;;;14.74;66.41
53526;BME280;40551;50.478;19.378;2022-09-12T08:46:18;97869.75;;;14.66;65.72
53526;BME280;40551;50.478;19.378;2022-09-12T08:48:53;97869.48;;;14.69;64.98
53526;BME280;40551;50.478;19.378;2022-09-12T08:51:27;97878.05;;;14.74;64.92
53526;BME280;40551;50.478;19.378;2022-09-12T08:54:00;97878.16;;;14.81;63.84
53526;BME280;40551;50.478;19.378;2022-09-12T08:56:36;97876.70;;;14.88;64.75
53526;BME280;40551;50.478;19.378;2022-09-12T08:59:09;97876.41;;;14.94;63.77
53526;BME280;40551;50.478;19.378;2022-09-12T09:01:44;97875.80;;;15.00;64.68
53526;BME280;40551;50.478;19.378;2022-09-12T09:04:29;97876.52;;;15.06;64.90
53526;BME280;40551;50.478;19.378;2022-09-12T09:07:17;97877.86;;;15.15;66.03
53526;BME280;40551;50.478;19.378;2022-09-12T09:10:02;97881.21;;;15.15;63.91
53526;BME280;40551;50.478;19.378;2022-09-12T09:12:46;97878.30;;;15.13;63.38
53526;BME280;40551;50.478;19.378;2022-09-12T09:15:41;97870.16;;;15.18;63.08
53526;BME280;40551;50.478;19.378;2022-09-12T09:18:21;97879.31;;;15.33;64.05
53526;BME280;40551;50.478;19.378;2022-09-12T09:20:56;97874.08;;;15.31;62.54
53526;BME280;40551;50.478;19.378;2022-09-12T09:23:32;97876.63;;;15.20;62.19
53526;BME280;40551;50.478;19.378;2022-09-12T09:26:07;97881.77;;;15.08;62.54
53526;BME280;40551;50.478;19.378;2022-09-12T09:28:46;97879.75;;;14.97;62.96
53526;BME280;40551;50.478;19.378;2022-09-12T09:31:22;97880.19;;;15.01;63.93
53526;BME280;40551;50.478;19.378;2022-09-12T09:33:54;97879.77;;;15.15;63.60
53526;BME280;40551;50.478;19.378;2022-09-12T09:36:35;97876.27;;;15.32;63.67
53526;BME280;40551;50.478;19.378;2022-09-12T09:39:22;97881.44;;;15.50;61.94
53526;BME280;40551;50.478;19.378;2022-09-12T09:42:05;97880.96;;;15.51;60.50
53526;BME280;40551;50.478;19.378;2022-09-12T09:44:39;97882.29;;;15.47;61.47
53526;BME280;40551;50.478;19.378;2022-09-12T09:47:11;97886.73;;;15.40;61.48
53526;BME280;40551;50.478;19.378;2022-09-12T09:49:42;97893.85;;;15.32;61.76
53526;BME280;40551;50.478;19.378;2022-09-12T09:52:15;97893.95;;;15.21;61.49
53526;BME280;40551;50.478;19.378;2022-09-12T09:54:50;97893.06;;;15.18;62.31
53526;BME280;40551;50.478;19.378;2022-09-12T09:57:44;97885.89;;;15.26;62.09
53526;BME280;40551;50.478;19.378;2022-09-12T10:00:31;97891.08;;;15.28;61.95
53526;BME280;40551;50.478;19.378;2022-09-12T10:03:21;97894.19;;;15.34;60.76
53526;BME280;40551;50.478;19.378;2022-09-12T10:05:54;97887.09;;;15.46;61.18
53526;BME280;40551;50.478;19.378;2022-09-12T10:08:29;97884.98;;;15.54;60.87
53526;BME280;40551;50.478;19.378;2022-09-12T10:11:03;97884.75;;;15.63;60.13
53526;BME280;40551;50.478;19.378;2022-09-12T10:13:38;97889.33;;;15.57;59.01
53526;BME280;40551;50.478;19.378;2022-09-12T10:16:22;97887.23;;;15.45;59.66
53526;BME280;40551;50.478;19.378;2022-09-12T10:18:55;97892.19;;;15.37;59.70
53526;BME280;40551;50.478;19.378;2022-09-12T10:21:33;97889.01;;;15.37;60.69
53526;BME280;40551;50.478;19.378;2022-09-12T10:24:20;97885.39;;;15.51;61.76
53526;BME280;40551;50.478;19.378;2022-09-12T10:26:54;97879.98;;;15.72;61.63
53526;BME280;40551;50.478;19.378;2022-09-12T10:29:29;97874.56;;;15.93;61.53
53526;BME280;40551;50.478;19.378;2022-09-12T10:32:03;97875.30;;;16.10;60.42
53526;BME280;40551;50.478;19.378;2022-09-12T10:34:38;97873.71;;;16.18;60.22
53526;BME280;40551;50.478;19.378;2022-09-12T10:37:21;97877.98;;;16.27;59.70
53526;BME280;40551;50.478;19.378;2022-09-12T10:39:55;97876.49;;;16.37;57.82
53526;BME280;40551;50.478;19.378;2022-09-12T10:42:51;97869.86;;;16.43;58.06
53526;BME280;40551;50.478;19.378;2022-09-12T10:45:27;97871.83;;;16.50;57.81
53526;BME280;40551;50.478;19.378;2022-09-12T10:48:00;97867.86;;;16.55;57.92
53526;BME280;40551;50.478;19.378;2022-09-12T10:50:40;97873.55;;;16.62;57.62
53526;BME280;40551;50.478;19.378;2022-09-12T10:53:20;97873.25;;;16.72;57.96
53526;BME280;40551;50.478;19.378;2022-09-12T10:56:03;97881.33;;;16.78;57.47
53526;BME280;40551;50.478;19.378;2022-09-12T10:58:58;97880.11;;;16.77;56.61
53526;BME280;40551;50.478;19.378;2022-09-12T11:01:39;97877.58;;;16.79;57.04
53526;BME280;40551;50.478;19.378;2022-09-12T11:04:24;97872.88;;;16.88;57.32
53526;BME280;40551;50.478;19.378;2022-09-12T11:07:10;97871.14;;;16.99;56.91
53526;BME280;40551;50.478;19.378;2022-09-12T11:09:50;97876.33;;;17.04;55.71
53526;BME280;40551;50.478;19.378;2022-09-12T11:12:30;97877.84;;;17.03;55.09
53526;BME280;40551;50.478;19.378;2022-09-12T11:15:14;97878.58;;;17.07;55.50
53526;BME280;40551;50.478;19.378;2022-09-12T11:17:53;97875.98;;;17.10;54.49
53526;BME280;40551;50.478;19.378;2022-09-12T11:20:50;97882.05;;;17.03;53.17
53526;BME280;40551;50.478;19.378;2022-09-12T11:23:40;97878.15;;;16.97;53.90
53526;BME280;40551;50.478;19.378;2022-09-12T11:26:43;97878.41;;;16.92;53.51
53526;BME280;40551;50.478;19.378;2022-09-12T11:29:19;97877.88;;;16.83;52.89
53526;BME280;40551;50.478;19.378;2022-09-12T11:32:12;97882.85;;;16.65;53.87
53526;BME280;40551;50.478;19.378;2022-09-12T11:34:59;97884.23;;;16.63;54.62
53526;BME280;40551;50.478;19.378;2022-09-12T11:37:47;97882.72;;;16.71;55.56
53526;BME280;40551;50.478;19.378;2022-09-12T11:40:28;97878.88;;;16.80;55.58
53526;BME280;40551;50.478;19.378;2022-09-12T11:43:06;97878.57;;;16.88;54.66
53526;BME280;40551;50.478;19.378;2022-09-12T11:45:43;97878.23;;;16.98;55.64
53526;BME280;40551;50.478;19.378;2022-09-12T11:48:22;97884.10;;;17.10;55.67
53526;BME280;40551;50.478;19.378;2022-09-12T11:50:57;97880.22;;;17.22;55.21
53526;BME280;40551;50.478;19.378;2022-09-12T11:53:32;97886.27;;;17.32;54.83
53526;BME280;40551;50.478;19.378;2022-09-12T11:56:11;97886.67;;;17.38;53.58
53526;BME280;40551;50.478;19.378;2022-09-12T11:58:48;97881.84;;;17.46;54.38
53526;BME280;40551;50.478;19.378;2022-09-12T12:01:25;97884.88;;;17.51;53.22
53526;BME280;40551;50.478;19.378;2022-09-12T12:04:02;97892.02;;;17.57;53.69
53526;BME280;40551;50.478;19.378;2022-09-12T12:06:46;97896.78;;;17.58;53.03
53526;BME280;40551;50.478;19.378;2022-09-12T12:09:18;97890.00;;;17.56;53.34
53526;BME280;40551;50.478;19.378;2022-09-12T12:11:52;97890.51;;;17.62;53.22
53526;BME280;40551;50.478;19.378;2022-09-12T12:14:35;97890.44;;;17.66;53.32
53526;BME280;40551;50.478;19.378;2022-09-12T12:17:15;97895.77;;;17.67;53.68
53526;BME280;40551;50.478;19.378;2022-09-12T12:19:55;97894.97;;;17.69;53.89
53526;BME280;40551;50.478;19.378;2022-09-12T12:22:34;97899.86;;;17.65;52.85
53526;BME280;40551;50.478;19.378;2022-09-12T12:25:24;97894.75;;;17.51;52.19
53526;BME280;40551;50.478;19.378;2022-09-12T12:28:00;97895.50;;;17.48;53.19
53526;BME280;40551;50.478;19.378;2022-09-12T12:30:59;97892.09;;;17.46;53.74
53526;BME280;40551;50.478;19.378;2022-09-12T12:36:44;97886.59;;;17.40;53.21
53526;BME280;40551;50.478;19.378;2022-09-12T12:45:48;97883.33;;;17.11;51.86
53526;BME280;40551;50.478;19.378;2022-09-12T12:48:31;97879.39;;;17.16;51.86
53526;BME280;40551;50.478;19.378;2022-09-12T12:51:19;97878.39;;;17.18;52.55
53526;BME280;40551;50.478;19.378;2022-09-12T12:53:56;97871.68;;;17.29;53.30
53526;BME280;40551;50.478;19.378;2022-09-12T12:56:34;97869.46;;;17.39;53.06
53526;BME280;40551;50.478;19.378;2022-09-12T12:59:20;97868.60;;;17.48;53.55
53526;BME280;40551;50.478;19.378;2022-09-12T13:01:55;97869.36;;;17.56;52.67
53526;BME280;40551;50.478;19.378;2022-09-12T13:04:31;97869.06;;;17.59;51.85
53526;BME280;40551;50.478;19.378;2022-09-12T13:07:05;97870.09;;;17.58;50.84
53526;BME280;40551;50.478;19.378;2022-09-12T13:09:44;97869.01;;;17.58;51.78
53526;BME280;40551;50.478;19.378;2022-09-12T13:12:21;97869.89;;;17.61;51.13
53526;BME280;40551;50.478;19.378;2022-09-12T13:14:58;97868.13;;;17.58;50.42
53526;BME280;40551;50.478;19.378;2022-09-12T13:17:33;97870.74;;;17.51;51.49
53526;BME280;40551;50.478;19.378;2022-09-12T13:20:20;97873.21;;;17.43;51.67
53526;BME280;40551;50.478;19.378;2022-09-12T13:22:58;97867.36;;;17.39;51.76
53526;BME280;40551;50.478;19.378;2022-09-12T13:25:31;97867.13;;;17.38;51.84
53526;BME280;40551;50.478;19.378;2022-09-12T13:28:06;97861.42;;;17.39;52.08
53526;BME280;40551;50.478;19.378;2022-09-12T13:30:46;97863.48;;;17.38;51.26
53526;BME280;40551;50.478;19.378;2022-09-12T13:33:23;97863.33;;;17.39;52.08
53526;BME280;40551;50.478;19.378;2022-09-12T13:39:15;97862.38;;;17.41;51.98
53526;BME280;40551;50.478;19.378;2022-09-12T13:42:06;97866.52;;;17.31;51.22
53526;BME280;40551;50.478;19.378;2022-09-12T13:44:49;97861.88;;;17.23;51.38
53526;BME280;40551;50.478;19.378;2022-09-12T13:47:25;97859.92;;;17.24;52.20
53526;BME280;40551;50.478;19.378;2022-09-12T13:49:59;97859.13;;;17.27;52.48